createdAt,value
2023-06-29T00:01:28.980Z,62.40
2023-06-29T00:03:55.759Z,62.60
2023-06-29T00:06:22.496Z,63.00
2023-06-29T00:08:49.206Z,62.70
2023-06-29T00:11:16.088Z,63.30
2023-06-29T00:13:43.014Z,63.40
2023-06-29T00:16:09.838Z,62.90
2023-06-29T00:18:37.034Z,62.50
2023-06-29T00:21:05.777Z,62.40
2023-06-29T00:23:35.269Z,62.30
2023-06-29T00:26:03.907Z,62.70
2023-06-29T00:28:30.643Z,62.90
2023-06-29T00:30:57.923Z,63.20
2023-06-29T00:33:27.731Z,63.80
2023-06-29T00:35:54.484Z,63.90
2023-06-29T00:38:22.633Z,63.20
2023-06-29T00:40:49.941Z,63.30
2023-06-29T00:43:19.042Z,63.30
2023-06-29T00:45:45.909Z,62.80
2023-06-29T00:48:13.869Z,62.50
2023-06-29T00:50:41.301Z,63.00
2023-06-29T00:53:08.400Z,63.30
2023-06-29T00:55:35.784Z,64.00
2023-06-29T00:58:02.666Z,64.70
2023-06-29T01:00:29.620Z,64.00
2023-06-29T01:02:57.089Z,63.80
2023-06-29T01:05:24.179Z,64.10
2023-06-29T01:07:59.237Z,64.10
2023-06-29T01:10:28.175Z,63.60
2023-06-29T01:12:55.529Z,64.30
2023-06-29T01:15:23.165Z,64.30
2023-06-29T01:17:54.312Z,63.90
2023-06-29T01:20:26.961Z,64.00
2023-06-29T01:23:00.258Z,64.50
2023-06-29T01:25:28.581Z,64.60
2023-06-29T01:27:57.351Z,64.20
2023-06-29T01:30:24.577Z,65.20
2023-06-29T01:32:51.529Z,64.50
2023-06-29T01:35:20.121Z,64.80
2023-06-29T01:37:59.263Z,65.80
2023-06-29T01:40:29.269Z,65.40
2023-06-29T01:42:58.646Z,64.70
2023-06-29T01:45:26.323Z,64.60
2023-06-29T01:47:56.484Z,64.20
2023-06-29T01:50:23.950Z,63.90
2023-06-29T01:52:50.775Z,63.80
2023-06-29T01:55:17.592Z,64.20
2023-06-29T01:57:44.350Z,64.90
2023-06-29T02:00:11.713Z,64.70
2023-06-29T02:02:41.657Z,65.30
2023-06-29T02:05:09.100Z,65.40
2023-06-29T02:07:36.073Z,65.10
2023-06-29T02:10:03.464Z,65.00
2023-06-29T02:12:31.545Z,65.10
2023-06-29T02:14:58.335Z,65.20
2023-06-29T02:17:25.137Z,64.80
2023-06-29T02:19:51.865Z,64.20
2023-06-29T02:22:18.601Z,64.30
2023-06-29T02:24:45.338Z,64.60
2023-06-29T02:27:12.160Z,64.60
2023-06-29T02:29:38.857Z,65.50
2023-06-29T02:32:06.202Z,65.70
2023-06-29T02:34:33.210Z,65.60
2023-06-29T02:37:00.046Z,65.50
2023-06-29T02:39:26.901Z,65.70
2023-06-29T02:41:54.460Z,65.60
2023-06-29T02:44:21.292Z,66.00
2023-06-29T02:46:48.168Z,65.90
2023-06-29T02:49:16.411Z,64.70
2023-06-29T02:51:43.891Z,65.30
2023-06-29T02:54:13.438Z,65.40
2023-06-29T02:56:40.236Z,65.70
2023-06-29T02:59:07.082Z,64.80
2023-06-29T03:01:33.972Z,64.40
2023-06-29T03:04:00.850Z,65.20
2023-06-29T03:06:27.617Z,65.50
2023-06-29T03:08:54.416Z,66.00
2023-06-29T03:11:21.106Z,65.60
2023-06-29T03:13:51.066Z,66.20
2023-06-29T03:16:18.156Z,66.70
2023-06-29T03:18:45.172Z,66.80
2023-06-29T03:21:17.784Z,65.90
2023-06-29T03:23:46.012Z,65.50
2023-06-29T03:26:13.787Z,65.60
2023-06-29T03:28:40.639Z,64.70
2023-06-29T03:31:07.492Z,64.80
2023-06-29T03:33:34.370Z,65.50
2023-06-29T03:36:01.149Z,66.30
2023-06-29T03:38:27.958Z,67.70
2023-06-29T03:40:54.676Z,68.10
2023-06-29T03:43:21.401Z,67.90
2023-06-29T03:45:48.122Z,69.60
2023-06-29T03:48:14.996Z,69.40
2023-06-29T03:50:41.793Z,68.90
2023-06-29T03:53:09.429Z,68.60
2023-06-29T03:55:36.252Z,68.20
2023-06-29T03:58:02.978Z,68.10
2023-06-29T04:00:29.763Z,67.10
2023-06-29T04:02:56.686Z,66.00
2023-06-29T04:05:23.512Z,66.50
2023-06-29T04:07:50.991Z,66.20
2023-06-29T04:10:17.756Z,65.90
2023-06-29T04:12:45.018Z,65.50
2023-06-29T04:15:11.908Z,65.70
2023-06-29T04:17:38.773Z,65.60
2023-06-29T04:20:06.196Z,66.20
2023-06-29T04:22:32.945Z,66.30
2023-06-29T04:24:59.662Z,66.60
2023-06-29T04:27:26.355Z,66.40
2023-06-29T04:29:53.103Z,66.40
2023-06-29T04:32:19.843Z,66.30
2023-06-29T04:34:48.919Z,66.40
2023-06-29T04:37:15.929Z,66.80
2023-06-29T04:39:42.760Z,66.80
2023-06-29T04:42:14.289Z,66.60
2023-06-29T04:44:41.199Z,66.90
2023-06-29T04:47:08.182Z,66.80
2023-06-29T04:49:40.334Z,66.40
2023-06-29T04:52:11.085Z,66.60
2023-06-29T04:54:38.175Z,66.20
2023-06-29T04:57:05.131Z,66.30
2023-06-29T04:59:31.947Z,66.00
2023-06-29T05:01:58.793Z,66.10
2023-06-29T05:04:25.639Z,65.90
2023-06-29T05:06:52.592Z,65.60
2023-06-29T05:09:19.332Z,65.30
2023-06-29T05:11:46.099Z,65.10
2023-06-29T05:14:12.851Z,64.60
2023-06-29T05:16:39.648Z,64.90
2023-06-29T05:19:06.483Z,64.70
2023-06-29T05:21:33.281Z,64.70
2023-06-29T05:24:00.030Z,64.00
2023-06-29T05:26:26.763Z,63.90
2023-06-29T05:29:04.438Z,63.60
2023-06-29T05:31:33.352Z,63.40
2023-06-29T05:34:00.324Z,63.40
2023-06-29T05:36:27.786Z,63.00
2023-06-29T05:38:54.645Z,62.50
2023-06-29T05:41:21.406Z,62.80
2023-06-29T05:43:48.284Z,63.60
2023-06-29T05:46:15.077Z,64.10
2023-06-29T05:48:41.834Z,63.80
2023-06-29T05:51:08.564Z,63.90
2023-06-29T05:53:35.430Z,63.80
2023-06-29T05:56:02.140Z,63.40
2023-06-29T05:58:29.132Z,62.90
2023-06-29T06:00:55.916Z,62.40
2023-06-29T06:03:23.605Z,62.20
2023-06-29T06:05:50.629Z,62.00
2023-06-29T06:08:17.392Z,61.60
2023-06-29T06:10:44.459Z,60.60
2023-06-29T06:13:11.372Z,60.40
2023-06-29T06:15:38.089Z,60.20
2023-06-29T06:18:05.002Z,60.20
2023-06-29T06:20:31.845Z,60.10
2023-06-29T06:22:58.835Z,59.60
2023-06-29T06:25:25.601Z,59.00
2023-06-29T06:27:52.695Z,59.80
2023-06-29T06:30:20.825Z,59.60
2023-06-29T06:32:47.559Z,59.90
2023-06-29T06:35:14.687Z,60.10
2023-06-29T06:37:41.799Z,59.80
2023-06-29T06:40:09.718Z,59.10
2023-06-29T06:42:37.294Z,59.90
2023-06-29T06:45:05.258Z,59.50
2023-06-29T06:47:32.813Z,59.30
2023-06-29T06:50:00.402Z,59.30
2023-06-29T06:52:27.970Z,58.80
2023-06-29T06:54:55.420Z,58.40
2023-06-29T06:57:22.204Z,57.40
2023-06-29T06:59:49.118Z,57.40
2023-06-29T07:02:16.245Z,56.70
2023-06-29T07:04:43.034Z,55.50
2023-06-29T07:07:09.989Z,55.70
2023-06-29T07:09:36.905Z,55.70
2023-06-29T07:12:03.804Z,55.30
2023-06-29T07:14:30.532Z,54.60
2023-06-29T07:16:57.305Z,54.50
2023-06-29T07:24:23.543Z,52.00
2023-06-29T07:26:50.555Z,51.70
2023-06-29T07:29:17.278Z,51.90
2023-06-29T07:31:44.030Z,52.50
2023-06-29T07:34:11.115Z,52.30
2023-06-29T07:36:38.476Z,50.80
2023-06-29T07:39:05.212Z,50.60
2023-06-29T07:41:32.908Z,48.10
2023-06-29T07:44:01.120Z,48.70
2023-06-29T07:46:28.512Z,48.60
2023-06-29T07:48:56.798Z,48.50
2023-06-29T07:51:25.299Z,47.70
2023-06-29T07:53:53.352Z,47.70
2023-06-29T07:56:20.429Z,47.50
2023-06-29T07:58:47.746Z,46.90
2023-06-29T08:01:14.643Z,46.80
2023-06-29T08:04:01.012Z,46.80
2023-06-29T08:08:57.943Z,46.50
2023-06-29T08:11:24.875Z,45.40
2023-06-29T08:13:51.671Z,43.40
2023-06-29T08:16:18.504Z,43.60
2023-06-29T08:18:45.307Z,43.90
2023-06-29T08:21:12.517Z,43.70
2023-06-29T08:23:39.297Z,43.80
2023-06-29T08:26:06.168Z,43.40
2023-06-29T08:28:32.896Z,43.80
2023-06-29T08:30:59.635Z,44.10
2023-06-29T08:33:26.580Z,43.70
2023-06-29T08:35:53.459Z,42.80
2023-06-29T08:38:20.279Z,41.00
2023-06-29T08:40:50.738Z,42.70
2023-06-29T08:43:19.055Z,41.80
2023-06-29T08:45:47.093Z,42.20
2023-06-29T08:48:15.266Z,41.40
2023-06-29T08:50:46.635Z,42.10
2023-06-29T08:53:14.842Z,41.90
2023-06-29T08:55:44.049Z,41.40
2023-06-29T08:58:11.365Z,40.80
2023-06-29T09:00:38.709Z,40.30
2023-06-29T09:03:06.130Z,40.30
2023-06-29T09:05:33.679Z,39.90
2023-06-29T09:08:00.604Z,40.80
2023-06-29T09:10:27.471Z,40.20
2023-06-29T09:12:55.270Z,40.40
2023-06-29T09:15:26.197Z,40.10
2023-06-29T09:17:56.701Z,38.90
2023-06-29T09:20:24.350Z,40.90
2023-06-29T09:22:52.488Z,40.10
2023-06-29T09:25:33.014Z,38.80
2023-06-29T09:28:06.428Z,38.40
2023-06-29T09:30:40.221Z,38.50
2023-06-29T09:33:08.790Z,38.90
2023-06-29T09:35:37.453Z,40.30
2023-06-29T09:38:04.493Z,39.60
2023-06-29T09:40:31.395Z,39.10
2023-06-29T09:43:02.690Z,39.90
2023-06-29T09:45:31.475Z,38.40
2023-06-29T09:50:28.753Z,38.80
2023-06-29T09:52:56.433Z,37.20
2023-06-29T09:55:33.944Z,38.10
2023-06-29T09:58:01.585Z,38.40
2023-06-29T10:00:29.056Z,36.70
2023-06-29T10:02:56.236Z,37.60
2023-06-29T10:05:23.123Z,38.00
2023-06-29T10:07:54.301Z,36.50
2023-06-29T10:10:24.628Z,37.70
2023-06-29T10:12:58.490Z,37.60
2023-06-29T10:15:27.448Z,38.00
2023-06-29T10:18:00.856Z,37.30
2023-06-29T10:20:31.334Z,37.20
2023-06-29T10:23:00.309Z,36.10
2023-06-29T10:25:29.294Z,36.20
2023-06-29T10:27:57.289Z,36.00
2023-06-29T10:30:24.264Z,37.00
2023-06-29T10:32:52.198Z,38.70
2023-06-29T10:35:18.990Z,37.20
2023-06-29T10:37:48.543Z,36.70
2023-06-29T10:40:17.228Z,36.40
2023-06-29T10:42:43.940Z,37.60
2023-06-29T10:45:19.690Z,36.40
2023-06-29T10:48:00.182Z,36.00
2023-06-29T10:50:31.206Z,37.20
2023-06-29T10:53:02.803Z,37.40
2023-06-29T10:55:40.057Z,36.80
2023-06-29T10:58:14.038Z,36.80
2023-06-29T11:00:41.411Z,36.40
2023-06-29T11:03:10.638Z,36.60
2023-06-29T11:05:38.684Z,36.40
2023-06-29T11:08:07.450Z,36.40
2023-06-29T11:10:35.236Z,37.10
2023-06-29T11:13:08.673Z,38.30
2023-06-29T11:15:35.815Z,37.40
2023-06-29T11:18:10.130Z,38.00
2023-06-29T11:20:40.647Z,37.00
2023-06-29T11:23:08.485Z,37.90
2023-06-29T11:25:37.003Z,36.90
2023-06-29T11:28:04.215Z,36.10
2023-06-29T11:30:31.108Z,35.90
2023-06-29T11:33:00.900Z,35.60
2023-06-29T11:35:27.733Z,35.40
2023-06-29T11:38:01.938Z,35.50
2023-06-29T11:40:29.832Z,35.10
2023-06-29T11:42:56.817Z,35.70
2023-06-29T11:45:24.619Z,35.60
2023-06-29T11:47:55.954Z,36.40
2023-06-29T11:50:24.601Z,35.70
2023-06-29T11:52:52.204Z,36.00
2023-06-29T11:58:06.478Z,34.00
2023-06-29T12:00:34.522Z,34.10
2023-06-29T12:03:08.991Z,34.00
2023-06-29T12:05:41.317Z,34.30
2023-06-29T12:08:11.440Z,34.50
2023-06-29T12:10:39.829Z,34.60
2023-06-29T12:13:09.818Z,34.40
2023-06-29T12:15:36.609Z,33.90
2023-06-29T12:18:13.606Z,34.50
2023-06-29T12:20:43.584Z,34.90
2023-06-29T12:23:12.326Z,37.00
2023-06-29T12:25:43.962Z,35.50
2023-06-29T12:28:11.066Z,34.50
2023-06-29T12:30:38.103Z,34.10
2023-06-29T12:33:04.941Z,33.70
2023-06-29T12:35:31.740Z,33.50
2023-06-29T12:37:59.118Z,32.60
2023-06-29T12:40:25.954Z,32.80
2023-06-29T12:42:55.770Z,32.50
2023-06-29T12:45:22.940Z,33.80
2023-06-29T12:47:49.737Z,34.50
2023-06-29T12:50:17.654Z,36.50
2023-06-29T12:52:48.233Z,36.20
2023-06-29T12:55:16.276Z,36.50
2023-06-29T12:57:44.620Z,37.10
2023-06-29T13:00:13.498Z,35.70
2023-06-29T13:02:41.550Z,35.60
2023-06-29T13:05:09.207Z,35.70
2023-06-29T13:07:37.123Z,35.90
2023-06-29T13:10:05.049Z,35.30
2023-06-29T13:12:32.267Z,36.50
2023-06-29T13:14:59.405Z,36.00
2023-06-29T13:17:26.477Z,36.00
2023-06-29T13:19:53.210Z,35.70
2023-06-29T13:22:19.974Z,34.50
2023-06-29T13:24:48.076Z,34.20
2023-06-29T13:27:15.064Z,34.20
2023-06-29T13:29:41.820Z,33.70
2023-06-29T13:32:09.064Z,33.50
2023-06-29T13:34:35.954Z,33.60
2023-06-29T13:37:02.835Z,33.10
2023-06-29T13:39:30.233Z,32.90
2023-06-29T13:41:56.995Z,32.60
2023-06-29T13:44:23.766Z,32.40
2023-06-29T13:46:50.584Z,32.20
2023-06-29T13:49:17.432Z,31.70
2023-06-29T13:51:45.303Z,32.20
2023-06-29T13:54:13.135Z,31.60
2023-06-29T13:56:39.922Z,30.80
2023-06-29T13:59:09.199Z,31.10
2023-06-29T14:01:41.053Z,31.80
2023-06-29T14:04:09.922Z,32.30
2023-06-29T14:06:40.673Z,31.90
2023-06-29T14:09:08.907Z,31.60
2023-06-29T14:11:35.977Z,31.30
2023-06-29T14:14:02.730Z,31.80
2023-06-29T14:16:30.625Z,33.20
2023-06-29T14:18:58.686Z,32.90
2023-06-29T14:21:25.568Z,32.40
2023-06-29T14:23:52.566Z,32.80
2023-06-29T14:26:19.377Z,32.40
2023-06-29T14:28:46.133Z,31.70
2023-06-29T14:31:12.935Z,31.40
2023-06-29T14:33:39.904Z,32.10
2023-06-29T14:36:06.909Z,32.10
2023-06-29T14:38:34.112Z,31.80
2023-06-29T14:41:03.093Z,30.60
2023-06-29T14:43:30.501Z,30.10
2023-06-29T14:45:57.763Z,30.30
2023-06-29T14:48:25.070Z,30.00
2023-06-29T14:50:52.917Z,30.70
2023-06-29T14:53:23.550Z,31.40
2023-06-29T14:55:50.588Z,31.30
2023-06-29T14:58:17.907Z,31.90
2023-06-29T15:00:45.535Z,32.20
2023-06-29T15:03:12.477Z,32.20
2023-06-29T15:05:39.254Z,32.50
2023-06-29T15:08:05.967Z,30.90
2023-06-29T15:10:32.871Z,31.40
2023-06-29T15:12:59.673Z,30.90
2023-06-29T15:15:26.641Z,30.70
2023-06-29T15:17:53.557Z,29.80
2023-06-29T15:20:20.491Z,29.60
2023-06-29T15:22:47.210Z,30.00
2023-06-29T15:25:14.141Z,30.30
2023-06-29T15:27:41.522Z,29.50
2023-06-29T15:30:08.733Z,30.40
2023-06-29T15:32:35.789Z,30.10
2023-06-29T15:35:03.987Z,30.00
2023-06-29T15:37:32.863Z,29.80
2023-06-29T15:39:59.614Z,30.00
2023-06-29T15:42:29.056Z,29.80
2023-06-29T15:44:56.072Z,29.10
2023-06-29T15:47:23.159Z,29.00
2023-06-29T15:49:50.310Z,30.20
2023-06-29T15:52:17.299Z,30.00
2023-06-29T15:54:44.164Z,30.20
2023-06-29T15:57:11.301Z,31.10
2023-06-29T15:59:38.112Z,31.30
2023-06-29T16:02:05.327Z,31.50
2023-06-29T16:04:32.140Z,31.90
2023-06-29T16:06:59.046Z,32.40
2023-06-29T16:09:28.169Z,32.00
2023-06-29T16:11:55.284Z,32.80
2023-06-29T16:14:22.042Z,33.60
2023-06-29T16:16:48.808Z,33.70
2023-06-29T16:19:17.625Z,33.30
2023-06-29T16:21:47.743Z,33.70
2023-06-29T16:24:14.707Z,33.30
2023-06-29T16:26:41.536Z,32.90
2023-06-29T16:29:08.336Z,32.90
2023-06-29T16:31:36.160Z,32.90
2023-06-29T16:34:03.715Z,31.60
2023-06-29T16:36:31.195Z,31.30
2023-06-29T16:38:58.395Z,32.00
2023-06-29T16:41:25.163Z,32.30
2023-06-29T16:43:52.080Z,32.50
2023-06-29T16:46:19.858Z,33.20
2023-06-29T16:49:01.015Z,33.40
2023-06-29T16:51:29.242Z,34.20
2023-06-29T16:53:56.587Z,34.50
2023-06-29T16:56:23.402Z,34.60
2023-06-29T16:58:50.366Z,34.90
2023-06-29T17:01:18.201Z,34.90
2023-06-29T17:03:45.154Z,34.30
2023-06-29T17:06:12.099Z,33.40
2023-06-29T17:08:40.897Z,32.20
2023-06-29T17:11:08.201Z,32.10
2023-06-29T17:13:35.340Z,31.60
2023-06-29T17:16:02.629Z,31.50
2023-06-29T17:18:29.543Z,31.60
2023-06-29T17:20:56.334Z,32.20
2023-06-29T17:23:23.180Z,33.00
2023-06-29T17:25:50.984Z,33.20
2023-06-29T17:28:18.974Z,33.80
2023-06-29T17:30:46.276Z,34.40
2023-06-29T17:33:14.364Z,34.80
2023-06-29T17:35:41.195Z,35.10
2023-06-29T17:38:08.030Z,35.40
2023-06-29T17:40:34.804Z,36.20
2023-06-29T17:43:02.128Z,36.40
2023-06-29T17:45:29.190Z,37.10
2023-06-29T17:47:56.468Z,37.50
2023-06-29T17:50:23.409Z,37.60
2023-06-29T17:52:50.448Z,38.10
2023-06-29T17:55:18.223Z,38.00
2023-06-29T17:57:45.238Z,38.80
2023-06-29T18:00:13.883Z,38.50
2023-06-29T18:02:40.796Z,38.60
2023-06-29T18:05:08.925Z,39.00
2023-06-29T18:07:36.097Z,39.10
2023-06-29T18:10:07.945Z,39.00
2023-06-29T18:12:36.588Z,38.90
2023-06-29T18:15:04.358Z,39.20
2023-06-29T18:17:31.270Z,39.90
2023-06-29T18:19:58.902Z,40.20
2023-06-29T18:22:26.157Z,39.90
2023-06-29T18:24:53.190Z,40.30
2023-06-29T18:27:20.116Z,40.60
2023-06-29T18:29:46.931Z,40.80
2023-06-29T18:32:13.865Z,41.00
2023-06-29T18:34:40.608Z,41.10
2023-06-29T18:37:07.506Z,41.30
2023-06-29T18:39:34.330Z,41.80
2023-06-29T18:42:01.123Z,41.90
2023-06-29T18:44:27.852Z,42.10
2023-06-29T18:47:08.784Z,42.90
2023-06-29T18:49:49.907Z,43.10
2023-06-29T18:52:18.966Z,43.20
2023-06-29T18:54:46.036Z,43.80
2023-06-29T18:57:12.889Z,43.90
2023-06-29T18:59:39.695Z,44.00
2023-06-29T19:02:06.891Z,44.10
2023-06-29T19:04:33.999Z,44.50
2023-06-29T19:07:01.366Z,44.60
2023-06-29T19:09:29.118Z,44.90
2023-06-29T19:11:57.009Z,45.10
2023-06-29T19:14:24.057Z,45.30
2023-06-29T19:16:50.890Z,45.70
2023-06-29T19:19:18.028Z,46.20
2023-06-29T19:21:48.988Z,48.00
2023-06-29T19:24:16.966Z,48.90
2023-06-29T19:26:43.921Z,49.00
2023-06-29T19:29:13.949Z,48.60
2023-06-29T19:31:42.136Z,48.00
2023-06-29T19:34:11.598Z,47.80
2023-06-29T19:36:39.412Z,48.50
2023-06-29T19:39:06.307Z,48.90
2023-06-29T19:41:33.079Z,49.30
2023-06-29T19:44:00.942Z,48.90
2023-06-29T19:46:27.836Z,49.40
2023-06-29T19:48:54.900Z,50.00
2023-06-29T19:51:21.901Z,50.00
2023-06-29T19:53:48.608Z,50.10
2023-06-29T19:56:15.518Z,50.10
2023-06-29T19:58:42.297Z,49.90
2023-06-29T20:01:09.096Z,49.70
2023-06-29T20:03:36.115Z,49.70
2023-06-29T20:06:03.642Z,50.00
2023-06-29T20:08:30.389Z,50.40
2023-06-29T20:10:57.120Z,50.10
2023-06-29T20:13:24.193Z,48.90
2023-06-29T20:15:51.163Z,48.80
2023-06-29T20:18:18.114Z,48.90
2023-06-29T20:20:44.883Z,49.80
2023-06-29T20:23:12.066Z,50.60
2023-06-29T20:25:39.428Z,51.50
2023-06-29T20:28:06.548Z,52.90
2023-06-29T20:30:33.803Z,54.60
2023-06-29T20:33:00.701Z,56.40
2023-06-29T20:35:27.801Z,57.10
2023-06-29T20:37:55.373Z,57.80
2023-06-29T20:40:22.127Z,58.10
2023-06-29T20:42:48.903Z,59.20
2023-06-29T20:45:15.656Z,59.70
2023-06-29T20:47:42.481Z,60.20
2023-06-29T20:50:09.561Z,60.90
2023-06-29T20:52:36.331Z,61.60
2023-06-29T20:55:03.421Z,62.10
2023-06-29T20:57:30.197Z,63.00
2023-06-29T20:59:56.938Z,63.60
2023-06-29T21:02:24.279Z,64.20
2023-06-29T21:04:51.263Z,64.60
2023-06-29T21:07:18.389Z,64.80
2023-06-29T21:09:45.202Z,65.30
2023-06-29T21:12:12.562Z,65.70
2023-06-29T21:14:39.508Z,66.20
2023-06-29T21:17:06.679Z,66.40
2023-06-29T21:19:33.832Z,66.60
2023-06-29T21:22:00.836Z,66.60
2023-06-29T21:24:27.821Z,67.70
2023-06-29T21:26:54.984Z,67.90
2023-06-29T21:29:40.800Z,68.00
2023-06-29T21:32:11.563Z,68.70
2023-06-29T21:34:39.023Z,68.60
2023-06-29T21:37:06.471Z,69.20
2023-06-29T21:39:33.353Z,69.90
2023-06-29T21:42:00.215Z,69.50
2023-06-29T21:44:27.196Z,69.90
2023-06-29T21:46:53.969Z,70.20
2023-06-29T21:49:21.793Z,70.50
2023-06-29T21:51:48.686Z,71.00
2023-06-29T21:54:15.525Z,70.70
2023-06-29T21:56:42.335Z,70.30
2023-06-29T21:59:09.206Z,70.80
2023-06-29T22:01:36.071Z,70.60
2023-06-29T22:04:03.274Z,70.90
2023-06-29T22:06:30.544Z,71.00
2023-06-29T22:08:57.712Z,71.40
2023-06-29T22:11:27.614Z,72.00
2023-06-29T22:13:54.522Z,72.20
2023-06-29T22:16:22.524Z,72.40
2023-06-29T22:18:51.734Z,73.00
2023-06-29T22:21:22.116Z,73.20
2023-06-29T22:23:51.086Z,73.10
2023-06-29T22:26:18.283Z,72.90
2023-06-29T22:28:45.611Z,72.70
2023-06-29T22:31:14.929Z,73.10
2023-06-29T22:33:41.740Z,72.90
2023-06-29T22:36:08.614Z,72.90
2023-06-29T22:38:35.987Z,72.50
2023-06-29T22:41:02.907Z,71.90
2023-06-29T22:43:29.620Z,72.40
2023-06-29T22:45:56.436Z,72.60
2023-06-29T22:48:23.431Z,72.40
2023-06-29T22:50:50.377Z,72.40
2023-06-29T22:53:17.262Z,72.50
2023-06-29T22:55:44.950Z,72.60
2023-06-29T22:58:11.869Z,72.80
2023-06-29T23:00:38.749Z,73.10
2023-06-29T23:03:05.720Z,73.30
2023-06-29T23:05:32.528Z,73.40
2023-06-29T23:07:59.250Z,73.10
2023-06-29T23:10:28.501Z,73.30
2023-06-29T23:12:55.351Z,73.50
2023-06-29T23:15:26.906Z,74.10
2023-06-29T23:17:54.710Z,74.50
2023-06-29T23:20:25.583Z,74.70
2023-06-29T23:22:52.356Z,75.30
2023-06-29T23:25:19.196Z,75.40
2023-06-29T23:27:45.970Z,75.20
2023-06-29T23:30:16.620Z,75.00
2023-06-29T23:32:46.087Z,74.90
2023-06-29T23:35:12.888Z,74.60
2023-06-29T23:37:39.603Z,74.20
2023-06-29T23:40:11.870Z,73.80
2023-06-29T23:42:39.244Z,73.90
2023-06-29T23:45:11.934Z,73.90
2023-06-29T23:47:39.570Z,73.80
2023-06-29T23:50:12.113Z,73.80
2023-06-29T23:52:39.487Z,73.70
2023-06-29T23:55:15.314Z,74.00
2023-06-29T23:57:42.442Z,73.90
